createdAt,value
2019-05-26T00:08:47.482Z,48.70
2019-05-26T00:21:54.628Z,48.60
2019-05-26T00:35:18.358Z,48.50
2019-05-26T00:48:41.176Z,48.40
2019-05-26T01:02:04.028Z,48.30
2019-05-26T01:15:26.822Z,48.30
2019-05-26T01:41:53.548Z,48.20
2019-05-26T01:55:00.680Z,48.20
2019-05-26T02:08:11.059Z,48.00
2019-05-26T02:21:31.671Z,48.00
2019-05-26T02:34:54.522Z,47.90
2019-05-26T02:48:17.354Z,47.90
2019-05-26T03:14:41.695Z,47.90
2019-05-26T03:27:48.817Z,47.80
2019-05-26T03:40:55.944Z,48.00
2019-05-26T04:08:16.738Z,47.80
2019-05-26T04:21:40.647Z,47.80
2019-05-26T04:35:03.504Z,47.90
2019-05-26T04:48:26.325Z,47.90
2019-05-26T05:15:24.061Z,47.90
2019-05-26T05:41:36.332Z,48.10
2019-05-26T05:54:43.465Z,48.10
2019-05-26T06:07:50.613Z,48.10
2019-05-26T06:20:57.697Z,48.20
2019-05-26T07:01:09.040Z,49.20
2019-05-26T07:14:32.015Z,48.90
2019-05-26T07:27:54.583Z,49.20
2019-05-26T07:41:17.393Z,49.70
2019-05-26T07:54:40.215Z,49.90
2019-05-26T08:08:11.552Z,50.10
2019-05-26T08:21:25.881Z,51.00
2019-05-26T08:34:48.649Z,52.60
2019-05-26T08:48:11.460Z,53.00
2019-05-26T09:01:34.307Z,53.60
2019-05-26T09:14:57.083Z,52.00
2019-05-26T09:28:19.981Z,48.70
2019-05-26T09:41:42.774Z,50.70
2019-05-26T09:55:05.576Z,50.80
2019-05-26T10:08:28.409Z,51.50
2019-05-26T10:21:51.182Z,50.70
2019-05-26T10:35:14.103Z,50.70
2019-05-26T10:48:36.976Z,50.70
2019-05-26T11:01:59.690Z,50.70
2019-05-26T11:15:22.513Z,51.10
2019-05-26T11:28:47.795Z,52.80
2019-05-26T11:42:12.964Z,54.40
2019-05-26T12:09:06.330Z,55.40
2019-05-26T12:22:13.639Z,56.30
2019-05-26T12:35:20.810Z,58.30
2019-05-26T12:48:28.030Z,58.40
2019-05-26T13:01:52.642Z,58.60
2019-05-26T13:33:05.647Z,54.80
2019-05-26T13:46:22.822Z,54.80
2019-05-26T13:59:45.616Z,54.80
2019-05-26T14:53:44.814Z,56.70
2019-05-26T15:45:09.938Z,57.80
2019-05-26T15:58:32.755Z,56.60
2019-05-26T16:13:33.997Z,55.60
2019-05-26T16:26:59.895Z,55.60
2019-05-26T17:06:07.008Z,56.10
2019-05-26T17:19:02.786Z,55.90
2019-05-26T17:32:10.016Z,55.60
2019-05-26T19:12:09.034Z,62.60
2019-05-26T19:25:31.710Z,62.70
2019-05-26T19:38:54.509Z,62.20
2019-05-26T19:52:17.436Z,62.50
2019-05-26T20:05:40.168Z,62.10
2019-05-26T20:29:58.703Z,60.90
2019-05-26T20:43:24.398Z,61.40
2019-05-26T21:09:45.527Z,61.20
2019-05-26T21:22:52.858Z,61.00
